sensor_id;sensor_type;location;lat;lon;timestamp;P1;durP1;ratioP1;P2;durP2;ratioP2
15843;SDS011;50807;52.436;13.346;2023-05-14T00:00:06;7.63;;;6.80;;
15843;SDS011;50807;52.436;13.346;2023-05-14T00:00:39;8.43;;;6.55;;
15843;SDS011;50807;52.436;13.346;2023-05-14T00:01:10;6.65;;;6.15;;
15843;SDS011;50807;52.436;13.346;2023-05-14T00:01:41;5.97;;;5.47;;
15843;SDS011;50807;52.436;13.346;2023-05-14T00:02:12;6.80;;;6.20;;
15843;SDS011;50807;52.436;13.346;2023-05-14T00:02:44;6.70;;;6.20;;
15843;SDS011;50807;52.436;13.346;2023-05-14T00:03:14;7.07;;;6.53;;
15843;SDS011;50807;52.436;13.346;2023-05-14T00:03:45;6.80;;;6.20;;
15843;SDS011;50807;52.436;13.346;2023-05-14T00:04:17;7.05;;;6.45;;
15843;SDS011;50807;52.436;13.346;2023-05-14T00:04:48;5.95;;;5.50;;
15843;SDS011;50807;52.436;13.346;2023-05-14T00:05:19;6.23;;;5.63;;
15843;SDS011;50807;52.436;13.346;2023-05-14T00:05:50;6.97;;;6.37;;
15843;SDS011;50807;52.436;13.346;2023-05-14T00:06:21;7.38;;;6.75;;
15843;SDS011;50807;52.436;13.346;2023-05-14T00:06:52;6.93;;;6.33;;
15843;SDS011;50807;52.436;13.346;2023-05-14T00:07:23;7.17;;;6.50;;
15843;SDS011;50807;52.436;13.346;2023-05-14T00:07:59;6.95;;;6.15;;
15843;SDS011;50807;52.436;13.346;2023-05-14T00:08:31;6.60;;;6.10;;
15843;SDS011;50807;52.436;13.346;2023-05-14T00:09:02;7.15;;;6.55;;
15843;SDS011;50807;52.436;13.346;2023-05-14T00:09:34;6.97;;;6.38;;
15843;SDS011;50807;52.436;13.346;2023-05-14T00:10:05;7.33;;;6.63;;
15843;SDS011;50807;52.436;13.346;2023-05-14T00:10:37;6.90;;;6.30;;
15843;SDS011;50807;52.436;13.346;2023-05-14T00:11:08;6.68;;;6.07;;
15843;SDS011;50807;52.436;13.346;2023-05-14T00:11:39;6.60;;;6.07;;
15843;SDS011;50807;52.436;13.346;2023-05-14T00:12:10;7.13;;;6.53;;
15843;SDS011;50807;52.436;13.346;2023-05-14T00:12:41;7.47;;;6.43;;
15843;SDS011;50807;52.436;13.346;2023-05-14T00:13:12;6.53;;;6.03;;
15843;SDS011;50807;52.436;13.346;2023-05-14T00:13:43;7.20;;;6.60;;
15843;SDS011;50807;52.436;13.346;2023-05-14T00:14:14;6.88;;;6.28;;
15843;SDS011;50807;52.436;13.346;2023-05-14T00:14:46;6.97;;;6.38;;
15843;SDS011;50807;52.436;13.346;2023-05-14T00:15:17;6.87;;;6.27;;
15843;SDS011;50807;52.436;13.346;2023-05-14T00:15:48;7.53;;;6.80;;
15843;SDS011;50807;52.436;13.346;2023-05-14T00:16:20;7.50;;;6.88;;
15843;SDS011;50807;52.436;13.346;2023-05-14T00:16:50;6.90;;;6.40;;
15843;SDS011;50807;52.436;13.346;2023-05-14T00:17:21;6.90;;;6.40;;
15843;SDS011;50807;52.436;13.346;2023-05-14T00:17:52;6.53;;;6.03;;
15843;SDS011;50807;52.436;13.346;2023-05-14T00:18:24;7.63;;;6.85;;
15843;SDS011;50807;52.436;13.346;2023-05-14T00:18:54;6.73;;;6.17;;
15843;SDS011;50807;52.436;13.346;2023-05-14T00:19:25;7.10;;;6.50;;
15843;SDS011;50807;52.436;13.346;2023-05-14T00:19:57;6.95;;;6.35;;
15843;SDS011;50807;52.436;13.346;2023-05-14T00:20:29;7.30;;;6.57;;
15843;SDS011;50807;52.436;13.346;2023-05-14T00:21:00;7.10;;;6.50;;
15843;SDS011;50807;52.436;13.346;2023-05-14T00:21:32;7.30;;;6.70;;
15843;SDS011;50807;52.436;13.346;2023-05-14T00:22:02;7.30;;;6.70;;
15843;SDS011;50807;52.436;13.346;2023-05-14T00:22:33;6.80;;;6.20;;
15843;SDS011;50807;52.436;13.346;2023-05-14T00:23:06;6.70;;;6.18;;
15843;SDS011;50807;52.436;13.346;2023-05-14T00:23:38;7.10;;;6.50;;
15843;SDS011;50807;52.436;13.346;2023-05-14T00:24:09;6.78;;;6.25;;
15843;SDS011;50807;52.436;13.346;2023-05-14T00:24:40;6.80;;;6.20;;
15843;SDS011;50807;52.436;13.346;2023-05-14T00:25:12;7.30;;;6.60;;
15843;SDS011;50807;52.436;13.346;2023-05-14T00:25:42;6.87;;;6.33;;
15843;SDS011;50807;52.436;13.346;2023-05-14T00:26:13;7.83;;;6.47;;
15843;SDS011;50807;52.436;13.346;2023-05-14T00:26:45;7.68;;;6.93;;
15843;SDS011;50807;52.436;13.346;2023-05-14T00:27:16;7.77;;;6.93;;
15843;SDS011;50807;52.436;13.346;2023-05-14T00:27:47;7.10;;;6.50;;
15843;SDS011;50807;52.436;13.346;2023-05-14T00:28:19;7.57;;;6.85;;
15843;SDS011;50807;52.436;13.346;2023-05-14T00:28:50;6.93;;;6.25;;
15843;SDS011;50807;52.436;13.346;2023-05-14T00:29:20;6.73;;;6.17;;
15843;SDS011;50807;52.436;13.346;2023-05-14T00:29:52;7.25;;;6.60;;
15843;SDS011;50807;52.436;13.346;2023-05-14T00:30:23;5.33;;;4.93;;
15843;SDS011;50807;52.436;13.346;2023-05-14T00:30:53;7.63;;;6.93;;
15843;SDS011;50807;52.436;13.346;2023-05-14T00:31:26;6.90;;;6.30;;
15843;SDS011;50807;52.436;13.346;2023-05-14T00:31:56;6.87;;;6.37;;
15843;SDS011;50807;52.436;13.346;2023-05-14T00:32:27;6.97;;;6.27;;
15843;SDS011;50807;52.436;13.346;2023-05-14T00:32:58;6.80;;;6.20;;
15843;SDS011;50807;52.436;13.346;2023-05-14T00:33:30;7.50;;;6.80;;
15843;SDS011;50807;52.436;13.346;2023-05-14T00:34:01;7.30;;;6.70;;
15843;SDS011;50807;52.436;13.346;2023-05-14T00:34:32;7.00;;;6.43;;
15843;SDS011;50807;52.436;13.346;2023-05-14T00:35:04;6.80;;;6.18;;
15843;SDS011;50807;52.436;13.346;2023-05-14T00:35:35;7.05;;;6.55;;
15843;SDS011;50807;52.436;13.346;2023-05-14T00:36:06;7.17;;;6.50;;
15843;SDS011;50807;52.436;13.346;2023-05-14T00:36:38;6.57;;;6.07;;
15843;SDS011;50807;52.436;13.346;2023-05-14T00:37:09;6.43;;;5.93;;
15843;SDS011;50807;52.436;13.346;2023-05-14T00:37:40;7.17;;;6.57;;
15843;SDS011;50807;52.436;13.346;2023-05-14T00:38:11;6.85;;;6.25;;
15843;SDS011;50807;52.436;13.346;2023-05-14T00:38:47;6.85;;;6.25;;
15843;SDS011;50807;52.436;13.346;2023-05-14T00:39:18;7.32;;;6.72;;
15843;SDS011;50807;52.436;13.346;2023-05-14T00:39:50;7.55;;;6.95;;
15843;SDS011;50807;52.436;13.346;2023-05-14T00:40:21;7.30;;;6.67;;
15843;SDS011;50807;52.436;13.346;2023-05-14T00:40:55;7.70;;;7.10;;
15843;SDS011;50807;52.436;13.346;2023-05-14T00:41:27;7.10;;;6.50;;
15843;SDS011;50807;52.436;13.346;2023-05-14T00:41:58;7.47;;;6.77;;
15843;SDS011;50807;52.436;13.346;2023-05-14T00:42:29;6.97;;;6.37;;
15843;SDS011;50807;52.436;13.346;2023-05-14T00:43:00;7.38;;;6.75;;
15843;SDS011;50807;52.436;13.346;2023-05-14T00:43:32;7.80;;;7.15;;
15843;SDS011;50807;52.436;13.346;2023-05-14T00:44:03;7.40;;;6.70;;
15843;SDS011;50807;52.436;13.346;2023-05-14T00:44:35;8.05;;;7.15;;
15843;SDS011;50807;52.436;13.346;2023-05-14T00:45:06;7.53;;;6.83;;
15843;SDS011;50807;52.436;13.346;2023-05-14T00:45:38;7.43;;;6.72;;
15843;SDS011;50807;52.436;13.346;2023-05-14T00:46:09;7.10;;;6.57;;
15843;SDS011;50807;52.436;13.346;2023-05-14T00:46:41;7.25;;;6.65;;
15843;SDS011;50807;52.436;13.346;2023-05-14T00:47:12;6.88;;;6.35;;
15843;SDS011;50807;52.436;13.346;2023-05-14T00:47:44;7.40;;;6.70;;
15843;SDS011;50807;52.436;13.346;2023-05-14T00:48:15;6.88;;;6.32;;
15843;SDS011;50807;52.436;13.346;2023-05-14T00:48:46;7.07;;;6.47;;
15843;SDS011;50807;52.436;13.346;2023-05-14T00:49:18;6.68;;;6.07;;
15843;SDS011;50807;52.436;13.346;2023-05-14T00:49:50;8.15;;;7.35;;
15843;SDS011;50807;52.436;13.346;2023-05-14T00:50:20;6.80;;;6.30;;
15843;SDS011;50807;52.436;13.346;2023-05-14T00:50:53;7.47;;;6.78;;
15843;SDS011;50807;52.436;13.346;2023-05-14T00:51:24;11.03;;;6.07;;
15843;SDS011;50807;52.436;13.346;2023-05-14T00:51:55;7.22;;;6.63;;
15843;SDS011;50807;52.436;13.346;2023-05-14T00:52:28;7.15;;;6.55;;
15843;SDS011;50807;52.436;13.346;2023-05-14T00:52:59;6.70;;;6.20;;
15843;SDS011;50807;52.436;13.346;2023-05-14T00:53:29;7.17;;;6.57;;
15843;SDS011;50807;52.436;13.346;2023-05-14T00:54:03;7.53;;;6.93;;
15843;SDS011;50807;52.436;13.346;2023-05-14T00:54:35;7.22;;;6.63;;
15843;SDS011;50807;52.436;13.346;2023-05-14T00:55:06;6.57;;;6.07;;
15843;SDS011;50807;52.436;13.346;2023-05-14T00:55:41;6.95;;;6.35;;
15843;SDS011;50807;52.436;13.346;2023-05-14T00:56:13;7.03;;;6.45;;
15843;SDS011;50807;52.436;13.346;2023-05-14T00:56:45;6.50;;;6.00;;
15843;SDS011;50807;52.436;13.346;2023-05-14T00:57:17;6.97;;;6.38;;
15843;SDS011;50807;52.436;13.346;2023-05-14T00:57:50;7.07;;;6.47;;
15843;SDS011;50807;52.436;13.346;2023-05-14T00:58:25;7.00;;;6.50;;
15843;SDS011;50807;52.436;13.346;2023-05-14T00:58:56;7.23;;;6.73;;
15843;SDS011;50807;52.436;13.346;2023-05-14T00:59:27;7.57;;;6.97;;
15843;SDS011;50807;52.436;13.346;2023-05-14T00:59:58;6.93;;;6.32;;
15843;SDS011;50807;52.436;13.346;2023-05-14T01:00:30;7.10;;;6.50;;
15843;SDS011;50807;52.436;13.346;2023-05-14T01:01:01;7.73;;;7.07;;
15843;SDS011;50807;52.436;13.346;2023-05-14T01:01:32;6.63;;;6.13;;
15843;SDS011;50807;52.436;13.346;2023-05-14T01:02:03;6.70;;;6.20;;
15843;SDS011;50807;52.436;13.346;2023-05-14T01:02:34;7.30;;;6.60;;
15843;SDS011;50807;52.436;13.346;2023-05-14T01:03:06;7.40;;;6.80;;
15843;SDS011;50807;52.436;13.346;2023-05-14T01:03:37;7.55;;;6.85;;
15843;SDS011;50807;52.436;13.346;2023-05-14T01:04:08;7.30;;;6.63;;
15843;SDS011;50807;52.436;13.346;2023-05-14T01:04:41;6.53;;;6.03;;
15843;SDS011;50807;52.436;13.346;2023-05-14T01:05:12;6.47;;;5.97;;
15843;SDS011;50807;52.436;13.346;2023-05-14T01:05:46;7.07;;;6.47;;
15843;SDS011;50807;52.436;13.346;2023-05-14T01:06:34;7.07;;;6.38;;
15843;SDS011;50807;52.436;13.346;2023-05-14T01:07:15;8.82;;;6.40;;
15843;SDS011;50807;52.436;13.346;2023-05-14T01:08:00;7.03;;;6.03;;
15843;SDS011;50807;52.436;13.346;2023-05-14T01:08:45;7.05;;;6.45;;
15843;SDS011;50807;52.436;13.346;2023-05-14T01:09:31;6.53;;;5.93;;
15843;SDS011;50807;52.436;13.346;2023-05-14T01:10:10;7.20;;;6.50;;
15843;SDS011;50807;52.436;13.346;2023-05-14T01:10:48;6.55;;;6.03;;
15843;SDS011;50807;52.436;13.346;2023-05-14T01:11:28;7.00;;;6.43;;
15843;SDS011;50807;52.436;13.346;2023-05-14T01:12:05;6.80;;;6.20;;
15843;SDS011;50807;52.436;13.346;2023-05-14T01:12:46;7.18;;;6.53;;
15843;SDS011;50807;52.436;13.346;2023-05-14T01:13:30;6.93;;;6.32;;
15843;SDS011;50807;52.436;13.346;2023-05-14T01:14:20;6.28;;;5.78;;
15843;SDS011;50807;52.436;13.346;2023-05-14T01:14:58;7.13;;;6.53;;
15843;SDS011;50807;52.436;13.346;2023-05-14T01:15:33;6.95;;;6.35;;
15843;SDS011;50807;52.436;13.346;2023-05-14T01:16:08;7.63;;;7.03;;
15843;SDS011;50807;52.436;13.346;2023-05-14T01:16:42;7.80;;;7.10;;
15843;SDS011;50807;52.436;13.346;2023-05-14T01:17:16;7.20;;;6.40;;
15843;SDS011;50807;52.436;13.346;2023-05-14T01:17:50;7.20;;;6.50;;
15843;SDS011;50807;52.436;13.346;2023-05-14T01:18:25;7.40;;;6.70;;
15843;SDS011;50807;52.436;13.346;2023-05-14T01:18:59;7.32;;;6.55;;
15843;SDS011;50807;52.436;13.346;2023-05-14T01:19:34;7.80;;;7.10;;
15843;SDS011;50807;52.436;13.346;2023-05-14T01:20:09;6.90;;;6.32;;
15843;SDS011;50807;52.436;13.346;2023-05-14T01:20:43;6.57;;;6.03;;
15843;SDS011;50807;52.436;13.346;2023-05-14T01:21:23;6.45;;;5.90;;
15843;SDS011;50807;52.436;13.346;2023-05-14T01:22:03;7.35;;;6.65;;
15843;SDS011;50807;52.436;13.346;2023-05-14T01:22:35;7.22;;;6.63;;
15843;SDS011;50807;52.436;13.346;2023-05-14T01:23:06;7.03;;;6.32;;
15843;SDS011;50807;52.436;13.346;2023-05-14T01:23:37;6.80;;;6.20;;
15843;SDS011;50807;52.436;13.346;2023-05-14T01:24:08;7.63;;;6.22;;
15843;SDS011;50807;52.436;13.346;2023-05-14T01:24:39;6.23;;;5.73;;
15843;SDS011;50807;52.436;13.346;2023-05-14T01:25:10;6.65;;;5.95;;
15843;SDS011;50807;52.436;13.346;2023-05-14T01:25:42;7.85;;;7.05;;
15843;SDS011;50807;52.436;13.346;2023-05-14T01:26:13;7.57;;;6.83;;
15843;SDS011;50807;52.436;13.346;2023-05-14T01:26:44;7.17;;;6.57;;
15843;SDS011;50807;52.436;13.346;2023-05-14T01:27:16;7.47;;;6.88;;
15843;SDS011;50807;52.436;13.346;2023-05-14T01:27:55;6.78;;;6.18;;
15843;SDS011;50807;52.436;13.346;2023-05-14T01:28:33;6.88;;;6.28;;
15843;SDS011;50807;52.436;13.346;2023-05-14T01:29:10;7.90;;;7.10;;
15843;SDS011;50807;52.436;13.346;2023-05-14T01:29:48;6.70;;;6.13;;
15843;SDS011;50807;52.436;13.346;2023-05-14T01:30:33;6.72;;;6.13;;
15843;SDS011;50807;52.436;13.346;2023-05-14T01:31:07;6.35;;;5.80;;
15843;SDS011;50807;52.436;13.346;2023-05-14T01:31:47;7.03;;;6.32;;
15843;SDS011;50807;52.436;13.346;2023-05-14T01:32:23;6.40;;;5.90;;
15843;SDS011;50807;52.436;13.346;2023-05-14T01:32:57;6.63;;;5.95;;
15843;SDS011;50807;52.436;13.346;2023-05-14T01:33:32;6.93;;;5.90;;
15843;SDS011;50807;52.436;13.346;2023-05-14T01:34:05;6.15;;;5.50;;
15843;SDS011;50807;52.436;13.346;2023-05-14T01:34:40;6.18;;;5.68;;
15843;SDS011;50807;52.436;13.346;2023-05-14T01:35:16;6.25;;;5.75;;
15843;SDS011;50807;52.436;13.346;2023-05-14T01:35:48;6.38;;;5.88;;
15843;SDS011;50807;52.436;13.346;2023-05-14T01:36:23;6.00;;;5.50;;
15843;SDS011;50807;52.436;13.346;2023-05-14T01:36:56;6.57;;;6.00;;
15843;SDS011;50807;52.436;13.346;2023-05-14T01:37:29;6.50;;;5.90;;
15843;SDS011;50807;52.436;13.346;2023-05-14T01:38:02;5.82;;;5.32;;
15843;SDS011;50807;52.436;13.346;2023-05-14T01:38:36;5.88;;;5.28;;
15843;SDS011;50807;52.436;13.346;2023-05-14T01:39:14;6.40;;;5.90;;
15843;SDS011;50807;52.436;13.346;2023-05-14T01:39:45;6.60;;;6.05;;
15843;SDS011;50807;52.436;13.346;2023-05-14T01:40:20;6.55;;;5.97;;
15843;SDS011;50807;52.436;13.346;2023-05-14T01:40:52;6.30;;;5.80;;
15843;SDS011;50807;52.436;13.346;2023-05-14T01:41:24;5.90;;;5.50;;
15843;SDS011;50807;52.436;13.346;2023-05-14T01:41:56;6.25;;;5.60;;
15843;SDS011;50807;52.436;13.346;2023-05-14T01:42:28;5.95;;;5.55;;
15843;SDS011;50807;52.436;13.346;2023-05-14T01:43:00;5.78;;;5.35;;
15843;SDS011;50807;52.436;13.346;2023-05-14T01:43:33;6.20;;;5.68;;
15843;SDS011;50807;52.436;13.346;2023-05-14T01:44:06;6.20;;;5.65;;
15843;SDS011;50807;52.436;13.346;2023-05-14T01:44:38;5.45;;;4.95;;
15843;SDS011;50807;52.436;13.346;2023-05-14T01:45:09;6.05;;;5.47;;
15843;SDS011;50807;52.436;13.346;2023-05-14T01:45:42;6.28;;;5.68;;
15843;SDS011;50807;52.436;13.346;2023-05-14T01:46:16;6.55;;;6.00;;
15843;SDS011;50807;52.436;13.346;2023-05-14T01:46:47;6.10;;;5.60;;
15843;SDS011;50807;52.436;13.346;2023-05-14T01:47:19;7.75;;;5.72;;
15843;SDS011;50807;52.436;13.346;2023-05-14T01:47:50;6.47;;;5.97;;
15843;SDS011;50807;52.436;13.346;2023-05-14T01:48:21;5.70;;;5.20;;
15843;SDS011;50807;52.436;13.346;2023-05-14T01:48:53;6.22;;;5.68;;
15843;SDS011;50807;52.436;13.346;2023-05-14T01:49:24;6.27;;;5.77;;
15843;SDS011;50807;52.436;13.346;2023-05-14T01:49:54;5.67;;;5.17;;
15843;SDS011;50807;52.436;13.346;2023-05-14T01:50:25;6.43;;;5.90;;
15843;SDS011;50807;52.436;13.346;2023-05-14T01:50:57;6.32;;;5.80;;
15843;SDS011;50807;52.436;13.346;2023-05-14T01:51:29;5.73;;;5.23;;
15843;SDS011;50807;52.436;13.346;2023-05-14T01:52:00;5.72;;;5.32;;
15843;SDS011;50807;52.436;13.346;2023-05-14T01:52:31;6.28;;;5.72;;
15843;SDS011;50807;52.436;13.346;2023-05-14T01:53:02;5.33;;;4.93;;
15843;SDS011;50807;52.436;13.346;2023-05-14T01:53:33;5.80;;;5.23;;
15843;SDS011;50807;52.436;13.346;2023-05-14T01:54:04;6.07;;;5.47;;
15843;SDS011;50807;52.436;13.346;2023-05-14T01:54:35;5.50;;;5.07;;
15843;SDS011;50807;52.436;13.346;2023-05-14T01:55:06;5.60;;;5.13;;
15843;SDS011;50807;52.436;13.346;2023-05-14T01:55:38;5.93;;;4.78;;
15843;SDS011;50807;52.436;13.346;2023-05-14T01:56:09;6.00;;;5.50;;
15843;SDS011;50807;52.436;13.346;2023-05-14T01:56:40;5.90;;;5.43;;
15843;SDS011;50807;52.436;13.346;2023-05-14T01:57:11;5.67;;;5.17;;
15843;SDS011;50807;52.436;13.346;2023-05-14T01:57:42;6.17;;;5.30;;
15843;SDS011;50807;52.436;13.346;2023-05-14T01:58:13;5.68;;;5.18;;
15843;SDS011;50807;52.436;13.346;2023-05-14T01:58:44;5.30;;;4.80;;
15843;SDS011;50807;52.436;13.346;2023-05-14T01:59:15;5.67;;;5.17;;
15843;SDS011;50807;52.436;13.346;2023-05-14T01:59:46;5.15;;;4.75;;
15843;SDS011;50807;52.436;13.346;2023-05-14T02:00:17;5.73;;;5.23;;
15843;SDS011;50807;52.436;13.346;2023-05-14T02:00:48;5.53;;;5.10;;
15843;SDS011;50807;52.436;13.346;2023-05-14T02:01:20;5.32;;;4.88;;
15843;SDS011;50807;52.436;13.346;2023-05-14T02:01:51;5.78;;;5.28;;
15843;SDS011;50807;52.436;13.346;2023-05-14T02:02:22;5.57;;;5.00;;
15843;SDS011;50807;52.436;13.346;2023-05-14T02:02:54;5.53;;;5.03;;
15843;SDS011;50807;52.436;13.346;2023-05-14T02:03:25;4.93;;;4.53;;
15843;SDS011;50807;52.436;13.346;2023-05-14T02:03:55;5.23;;;4.80;;
15843;SDS011;50807;52.436;13.346;2023-05-14T02:04:27;5.30;;;4.78;;
15843;SDS011;50807;52.436;13.346;2023-05-14T02:04:58;5.47;;;4.47;;
15843;SDS011;50807;52.436;13.346;2023-05-14T02:05:29;6.00;;;5.50;;
15843;SDS011;50807;52.436;13.346;2023-05-14T02:06:01;5.15;;;4.60;;
15843;SDS011;50807;52.436;13.346;2023-05-14T02:06:33;5.50;;;5.00;;
15843;SDS011;50807;52.436;13.346;2023-05-14T02:07:03;5.10;;;4.70;;
15843;SDS011;50807;52.436;13.346;2023-05-14T02:07:35;5.20;;;4.78;;
15843;SDS011;50807;52.436;13.346;2023-05-14T02:08:06;5.57;;;4.80;;
15843;SDS011;50807;52.436;13.346;2023-05-14T02:08:37;5.67;;;5.10;;
15843;SDS011;50807;52.436;13.346;2023-05-14T02:09:08;6.18;;;5.10;;
15843;SDS011;50807;52.436;13.346;2023-05-14T02:09:40;5.90;;;4.97;;
15843;SDS011;50807;52.436;13.346;2023-05-14T02:10:11;5.10;;;4.70;;
15843;SDS011;50807;52.436;13.346;2023-05-14T02:10:42;5.20;;;4.80;;
15843;SDS011;50807;52.436;13.346;2023-05-14T02:11:13;5.70;;;4.57;;
15843;SDS011;50807;52.436;13.346;2023-05-14T02:11:44;5.43;;;4.57;;
15843;SDS011;50807;52.436;13.346;2023-05-14T02:12:15;5.53;;;5.13;;
15843;SDS011;50807;52.436;13.346;2023-05-14T02:12:46;5.43;;;4.93;;
15843;SDS011;50807;52.436;13.346;2023-05-14T02:13:17;5.27;;;4.80;;
15843;SDS011;50807;52.436;13.346;2023-05-14T02:13:49;5.13;;;4.63;;
15843;SDS011;50807;52.436;13.346;2023-05-14T02:14:20;5.07;;;4.57;;
15843;SDS011;50807;52.436;13.346;2023-05-14T02:14:51;5.03;;;4.53;;
15843;SDS011;50807;52.436;13.346;2023-05-14T02:15:22;5.23;;;4.60;;
15843;SDS011;50807;52.436;13.346;2023-05-14T02:15:53;4.90;;;4.50;;
15843;SDS011;50807;52.436;13.346;2023-05-14T02:16:25;6.57;;;4.85;;
15843;SDS011;50807;52.436;13.346;2023-05-14T02:16:55;5.33;;;4.93;;
15843;SDS011;50807;52.436;13.346;2023-05-14T02:17:26;5.47;;;5.07;;
15843;SDS011;50807;52.436;13.346;2023-05-14T02:17:58;4.85;;;4.43;;
15843;SDS011;50807;52.436;13.346;2023-05-14T02:18:29;5.13;;;4.63;;
15843;SDS011;50807;52.436;13.346;2023-05-14T02:19:00;5.00;;;4.60;;
15843;SDS011;50807;52.436;13.346;2023-05-14T02:19:30;5.30;;;4.80;;
15843;SDS011;50807;52.436;13.346;2023-05-14T02:20:02;5.05;;;4.55;;
15843;SDS011;50807;52.436;13.346;2023-05-14T02:20:34;5.15;;;4.65;;
15843;SDS011;50807;52.436;13.346;2023-05-14T02:21:05;5.37;;;4.87;;
15843;SDS011;50807;52.436;13.346;2023-05-14T02:21:38;5.10;;;4.70;;
15843;SDS011;50807;52.436;13.346;2023-05-14T02:22:09;5.40;;;5.00;;
15843;SDS011;50807;52.436;13.346;2023-05-14T02:22:39;5.23;;;4.83;;
15843;SDS011;50807;52.436;13.346;2023-05-14T02:23:14;5.35;;;4.95;;
15843;SDS011;50807;52.436;13.346;2023-05-14T02:23:45;5.30;;;4.87;;
15843;SDS011;50807;52.436;13.346;2023-05-14T02:24:17;5.60;;;5.00;;
15843;SDS011;50807;52.436;13.346;2023-05-14T02:24:49;4.97;;;4.57;;
15843;SDS011;50807;52.436;13.346;2023-05-14T02:25:20;4.90;;;4.50;;
15843;SDS011;50807;52.436;13.346;2023-05-14T02:25:51;5.50;;;5.00;;
15843;SDS011;50807;52.436;13.346;2023-05-14T02:26:21;4.60;;;4.20;;
15843;SDS011;50807;52.436;13.346;2023-05-14T02:26:53;5.50;;;5.10;;
15843;SDS011;50807;52.436;13.346;2023-05-14T02:27:24;4.73;;;4.33;;
15843;SDS011;50807;52.436;13.346;2023-05-14T02:27:55;4.90;;;4.50;;
15843;SDS011;50807;52.436;13.346;2023-05-14T02:28:26;4.68;;;4.28;;
15843;SDS011;50807;52.436;13.346;2023-05-14T02:28:57;5.27;;;4.77;;
15843;SDS011;50807;52.436;13.346;2023-05-14T02:29:28;4.90;;;4.50;;
15843;SDS011;50807;52.436;13.346;2023-05-14T02:30:00;5.18;;;4.78;;
15843;SDS011;50807;52.436;13.346;2023-05-14T02:30:30;4.90;;;4.50;;
15843;SDS011;50807;52.436;13.346;2023-05-14T02:31:01;5.50;;;5.03;;
15843;SDS011;50807;52.436;13.346;2023-05-14T02:31:33;5.32;;;4.50;;
15843;SDS011;50807;52.436;13.346;2023-05-14T02:32:04;5.70;;;5.20;;
15843;SDS011;50807;52.436;13.346;2023-05-14T02:32:35;4.88;;;4.45;;
15843;SDS011;50807;52.436;13.346;2023-05-14T02:33:07;5.15;;;4.65;;
15843;SDS011;50807;52.436;13.346;2023-05-14T02:33:38;5.37;;;4.17;;
15843;SDS011;50807;52.436;13.346;2023-05-14T02:34:08;5.53;;;5.00;;
15843;SDS011;50807;52.436;13.346;2023-05-14T02:34:40;4.95;;;4.30;;
15843;SDS011;50807;52.436;13.346;2023-05-14T02:35:11;5.17;;;4.50;;
15843;SDS011;50807;52.436;13.346;2023-05-14T02:35:42;4.90;;;4.50;;
15843;SDS011;50807;52.436;13.346;2023-05-14T02:36:13;4.32;;;4.03;;
15843;SDS011;50807;52.436;13.346;2023-05-14T02:36:45;4.77;;;4.23;;
15843;SDS011;50807;52.436;13.346;2023-05-14T02:37:16;5.05;;;4.53;;
15843;SDS011;50807;52.436;13.346;2023-05-14T02:37:48;4.80;;;4.45;;
15843;SDS011;50807;52.436;13.346;2023-05-14T02:38:19;4.70;;;4.30;;
15843;SDS011;50807;52.436;13.346;2023-05-14T02:38:50;5.40;;;4.90;;
15843;SDS011;50807;52.436;13.346;2023-05-14T02:39:21;5.35;;;4.55;;
15843;SDS011;50807;52.436;13.346;2023-05-14T02:39:52;4.67;;;4.27;;
15843;SDS011;50807;52.436;13.346;2023-05-14T02:40:23;4.80;;;4.40;;
15843;SDS011;50807;52.436;13.346;2023-05-14T02:40:55;5.13;;;4.40;;
15843;SDS011;50807;52.436;13.346;2023-05-14T02:41:25;4.37;;;4.03;;
15843;SDS011;50807;52.436;13.346;2023-05-14T02:41:56;4.80;;;4.40;;
15843;SDS011;50807;52.436;13.346;2023-05-14T02:42:28;4.80;;;4.40;;
15843;SDS011;50807;52.436;13.346;2023-05-14T02:42:59;4.70;;;4.30;;
15843;SDS011;50807;52.436;13.346;2023-05-14T02:43:30;5.77;;;4.47;;
15843;SDS011;50807;52.436;13.346;2023-05-14T02:44:01;6.03;;;4.10;;
15843;SDS011;50807;52.436;13.346;2023-05-14T02:44:32;5.20;;;4.80;;
15843;SDS011;50807;52.436;13.346;2023-05-14T02:45:03;4.67;;;4.00;;
15843;SDS011;50807;52.436;13.346;2023-05-14T02:45:36;5.05;;;4.65;;
15843;SDS011;50807;52.436;13.346;2023-05-14T02:46:07;4.77;;;4.37;;
15843;SDS011;50807;52.436;13.346;2023-05-14T02:46:38;4.30;;;3.90;;
15843;SDS011;50807;52.436;13.346;2023-05-14T02:47:09;4.72;;;4.32;;
15843;SDS011;50807;52.436;13.346;2023-05-14T02:47:40;4.77;;;4.43;;
15843;SDS011;50807;52.436;13.346;2023-05-14T02:48:12;4.90;;;4.50;;
15843;SDS011;50807;52.436;13.346;2023-05-14T02:48:44;4.68;;;4.30;;
15843;SDS011;50807;52.436;13.346;2023-05-14T02:49:15;4.80;;;4.40;;
15843;SDS011;50807;52.436;13.346;2023-05-14T02:49:45;4.50;;;4.10;;
15843;SDS011;50807;52.436;13.346;2023-05-14T02:50:17;5.13;;;4.65;;
15843;SDS011;50807;52.436;13.346;2023-05-14T02:50:48;4.77;;;4.37;;
15843;SDS011;50807;52.436;13.346;2023-05-14T02:51:20;6.50;;;4.43;;
15843;SDS011;50807;52.436;13.346;2023-05-14T02:51:52;4.73;;;4.33;;
15843;SDS011;50807;52.436;13.346;2023-05-14T02:52:24;4.60;;;4.20;;
15843;SDS011;50807;52.436;13.346;2023-05-14T02:52:54;3.37;;;3.07;;
15843;SDS011;50807;52.436;13.346;2023-05-14T02:53:25;4.53;;;4.13;;
15843;SDS011;50807;52.436;13.346;2023-05-14T02:53:57;4.05;;;3.70;;
15843;SDS011;50807;52.436;13.346;2023-05-14T02:54:28;4.93;;;4.03;;
15843;SDS011;50807;52.436;13.346;2023-05-14T02:54:58;4.43;;;4.03;;
15843;SDS011;50807;52.436;13.346;2023-05-14T02:55:29;4.70;;;4.30;;
15843;SDS011;50807;52.436;13.346;2023-05-14T02:56:01;4.63;;;4.22;;
15843;SDS011;50807;52.436;13.346;2023-05-14T02:56:32;4.85;;;4.40;;
15843;SDS011;50807;52.436;13.346;2023-05-14T02:57:03;4.67;;;4.27;;
15843;SDS011;50807;52.436;13.346;2023-05-14T02:57:34;4.75;;;4.32;;
15843;SDS011;50807;52.436;13.346;2023-05-14T02:58:06;4.72;;;4.32;;
15843;SDS011;50807;52.436;13.346;2023-05-14T02:58:36;4.80;;;3.90;;
15843;SDS011;50807;52.436;13.346;2023-05-14T02:59:07;4.63;;;4.30;;
15843;SDS011;50807;52.436;13.346;2023-05-14T02:59:39;4.07;;;3.63;;
15843;SDS011;50807;52.436;13.346;2023-05-14T03:00:10;3.58;;;3.28;;
15843;SDS011;50807;52.436;13.346;2023-05-14T03:00:43;5.60;;;4.20;;
15843;SDS011;50807;52.436;13.346;2023-05-14T03:01:14;4.60;;;4.20;;
15843;SDS011;50807;52.436;13.346;2023-05-14T03:01:45;4.43;;;4.03;;
15843;SDS011;50807;52.436;13.346;2023-05-14T03:02:17;4.40;;;4.00;;
15843;SDS011;50807;52.436;13.346;2023-05-14T03:02:47;5.33;;;4.27;;
15843;SDS011;50807;52.436;13.346;2023-05-14T03:03:18;4.63;;;3.90;;
15843;SDS011;50807;52.436;13.346;2023-05-14T03:03:50;7.15;;;4.30;;
15843;SDS011;50807;52.436;13.346;2023-05-14T03:04:21;3.90;;;3.60;;
15843;SDS011;50807;52.436;13.346;2023-05-14T03:04:52;4.00;;;3.70;;
15843;SDS011;50807;52.436;13.346;2023-05-14T03:05:23;4.47;;;4.07;;
15843;SDS011;50807;52.436;13.346;2023-05-14T03:05:54;4.60;;;4.20;;
15843;SDS011;50807;52.436;13.346;2023-05-14T03:06:25;3.93;;;3.63;;
15843;SDS011;50807;52.436;13.346;2023-05-14T03:06:57;4.23;;;3.83;;
15843;SDS011;50807;52.436;13.346;2023-05-14T03:07:29;4.18;;;3.88;;
15843;SDS011;50807;52.436;13.346;2023-05-14T03:07:59;4.20;;;3.80;;
15843;SDS011;50807;52.436;13.346;2023-05-14T03:08:30;3.93;;;3.63;;
15843;SDS011;50807;52.436;13.346;2023-05-14T03:09:01;4.40;;;4.00;;
15843;SDS011;50807;52.436;13.346;2023-05-14T03:09:33;4.10;;;3.80;;
15843;SDS011;50807;52.436;13.346;2023-05-14T03:10:04;4.00;;;3.60;;
15843;SDS011;50807;52.436;13.346;2023-05-14T03:10:36;3.63;;;3.38;;